Thorpe Hamlet, United Kingdom
Current Conditions -  °F | °C
As of 6:20 PM on Thursday 18 Dec 2014 (Local Time) from EGSH Reporting Station
Broken Clouds Broken Clouds  
Wind Chill: 57°   Ceiling: 1800
Heat Index: 57°   Visibility: 6mi
Dew Point: 52°   Wind: 25mph
Humidity: 82%   Direction: 240°WSW
Pressure: 29.68"   Gusts: 38mph
Location:  52.63°N, 1.31°E
Report Text: EGSH 181820Z 24022G33KT 9999 BKN018 14/11 Q1005
Loading
Personal Weather Stations






























Interactive Weather Map New forecast layout! Learn more

10-Day Weather Forecast

Advertisements
Track Severe Weather on mobile